Dream Angel — 3EEV — position and weather

sailwx.info

Track history (hours):
 
Tides and Currents Weather Stations Pressure Air Temp Water Temp Dewpoint Dewpoint Depression Visibility Wind Speed Wind Dir Waves Ship Positions

Dream Angel

Last reported at 2015-Apr-16 21:31 UTC. Time now 2015-Apr-18 07:20 UTC.
Position N 01°16' E 104°16'.

Length 187 m; draft 6.9 m.

Type: Ship. MMSI: 371820000.

Date/timePositionNaut miles runAvg speedWind from/ knotsBaromVisibWave heightAir tempDewpointWater temp
2015-Apr-16 21:31N 01°16' E 104°16'1414.3
2015-Apr-16 20:33N 01°15' E 104°02'4 3.1
2015-Apr-16 19:22N 01°17' E 103°59'0 0.1
2015-Apr-16 18:31N 01°17' E 103°59'0 0.1
2015-Apr-16 17:28N 01°17' E 103°59'0 0.0
2015-Apr-16 16:22N 01°17' E 103°59'0 0.0
2015-Apr-16 14:16N 01°17' E 103°59'0 0.0
2015-Apr-16 13:25N 01°17' E 103°59'0 0.0
2015-Apr-16 12:19N 01°17' E 103°59'0 0.0
2015-Apr-16 11:28N 01°17' E 103°59'0 0.0
2015-Apr-16 10:28N 01°17' E 103°59'0 0.0
2015-Apr-16 09:22N 01°17' E 103°59'0 0.1
2015-Apr-16 08:22N 01°17' E 103°59'0 0.0
2015-Apr-16 06:31N 01°17' E 103°59'0 0.0
2015-Apr-16 04:31N 01°17' E 103°59'0 0.1
2015-Apr-16 03:32N 01°17' E 103°59'0 0.0
2015-Apr-16 02:33N 01°17' E 103°59'0 0.0
2015-Apr-16 01:33N 01°17' E 103°59'1 1.0
2015-Apr-16 00:33N 01°17' E 103°58'3 3.3
2015-Apr-15 23:33N 01°14' E 103°56'9 8.9
2015-Apr-15 22:33N 01°10' E 103°48'7311.5
2015-Apr-15 16:11N 01°41' E 102°42'912.6
2015-Apr-15 15:26N 01°44' E 102°33'1213.1
2015-Apr-15 14:32N 01°50' E 102°23'1612.5
2015-Apr-15 13:17N 01°58' E 102°09'2513.4
2015-Apr-15 11:24N 02°14' E 101°50'  
Track history (hours):
 
Tides and Currents Weather Stations Pressure Air Temp Water Temp Dewpoint Dewpoint Depression Visibility Wind Speed Wind Dir Waves Ship Positions

Dream Angel

Last reported at 2015-Apr-16 21:31 UTC. Time now 2015-Apr-18 07:20 UTC.
Position N 01°16' E 104°16'.

Length 187 m; draft 6.9 m.

Type: Ship. MMSI: 371820000.

Date/timePositionNaut miles runAvg speedWind from/ knotsBaromVisibWave heightAir tempDewpointWater temp
2015-Apr-16 21:31N 01°16' E 104°16'1414.3
2015-Apr-16 20:33N 01°15' E 104°02'4 3.1
2015-Apr-16 19:22N 01°17' E 103°59'0 0.1
2015-Apr-16 18:31N 01°17' E 103°59'0 0.1
2015-Apr-16 17:28N 01°17' E 103°59'0 0.0
2015-Apr-16 16:22N 01°17' E 103°59'0 0.0
2015-Apr-16 14:16N 01°17' E 103°59'0 0.0
2015-Apr-16 13:25N 01°17' E 103°59'0 0.0
2015-Apr-16 12:19N 01°17' E 103°59'0 0.0
2015-Apr-16 11:28N 01°17' E 103°59'0 0.0
2015-Apr-16 10:28N 01°17' E 103°59'0 0.0
2015-Apr-16 09:22N 01°17' E 103°59'0 0.1
2015-Apr-16 08:22N 01°17' E 103°59'0 0.0
2015-Apr-16 06:31N 01°17' E 103°59'0 0.0
2015-Apr-16 04:31N 01°17' E 103°59'0 0.1
2015-Apr-16 03:32N 01°17' E 103°59'0 0.0
2015-Apr-16 02:33N 01°17' E 103°59'0 0.0
2015-Apr-16 01:33N 01°17' E 103°59'1 1.0
2015-Apr-16 00:33N 01°17' E 103°58'3 3.3
2015-Apr-15 23:33N 01°14' E 103°56'9 8.9
2015-Apr-15 22:33N 01°10' E 103°48'7311.5
2015-Apr-15 16:11N 01°41' E 102°42'912.6
2015-Apr-15 15:26N 01°44' E 102°33'1213.1
2015-Apr-15 14:32N 01°50' E 102°23'1612.5
2015-Apr-15 13:17N 01°58' E 102°09'2513.4
2015-Apr-15 11:24N 02°14' E 101°50'  

Dump ship's entire track history